Portada
METAR-TAF:

METAR-TAF

Aeroports :

Ciutat de Panamà, Panamà

latitud: 08-59N, longitud: 079-31W, altitud: 13 m

Observació

L'informe es va fer fa 48 minuts, a les 09:00 UTC
Vent 5 kt del Nord/Nord-Oest, variant entre Oest/Nord-Oest i Nord
Temperatura 26°C
Humitat 79%
Pressió 1008 hPa

METAR: MPMG 270900Z AUTO 33005KT 300V360 //// R01///// // FEW028/// SCT036/// OVC072/// 26/22 Q1008

Hora: 04:48 (09:48 UTC)

Pronòstic

L'informe es va fer fa 8 hores i 48 minuts, a les 01:00 UTC
Pronòstic vàlid del 27 a les 00 UTC al 27 a les 12 UTC
Vent 10 kt del Nord/Nord-Est
Visibilitat 10 km o més
Escasses núvols a una alçada de 1800 ft

TAF: MPMG 270100Z 2700/2712 02010KT 9999 FEW018

Observacions i pronòstics meteorològics de més de 4000 aeroports (METAR i TAF).

Les estacions disponibles són els punts grocs i vermells al mapa.

Posi el ratolí al punt desitjat per veure el nom de l'estació.

Feu clic per veure les observacions i els pronòstics meteorològics.

Per canviar el mapa: feu clic els botons verds amb una creu de color negre per apropar; al botó verd amb un guió per allunyar la imatge; o en les fletxes verdes per a mapes adjacents.


METAR-TAF: